Time;durP1;ratioP1;P1;durP2;ratioP2;P2;SDS_P1;SDS_P2;PMS_P1;PMS_P2;Temp;Humidity;BMP_temperature;BMP_pressure;BME280_temperature;BME280_humidity;BME280_pressure;Samples;Min_cycle;Max_cycle;Signal;HPM_P1;HPM_P2
2022/04/23 00:02:00;;;;;;;16.65;7.20;;;11.00;99.90;;;;;;5044092;28;20459;-82
2022/04/23 00:04:25;;;;;;;14.50;7.75;;;11.10;99.90;;;;;;5042640;28;20080;-82
2022/04/23 00:06:51;;;;;;;12.93;7.00;;;11.00;99.90;;;;;;5042378;28;20476;-82
2022/04/23 00:09:16;;;;;;;11.38;7.07;;;10.80;99.90;;;;;;5042516;28;20529;-82
2022/04/23 00:11:43;;;;;;;14.13;7.05;;;10.70;99.90;;;;;;5041502;28;20041;-82
2022/04/23 00:14:08;;;;;;;15.75;7.43;;;10.60;99.90;;;;;;5044033;28;20111;-82
2022/04/23 00:16:34;;;;;;;12.10;6.82;;;10.50;99.90;;;;;;5042900;28;20488;-82
2022/04/23 00:19:00;;;;;;;14.07;7.32;;;10.30;99.90;;;;;;5043196;28;20037;-82
2022/04/23 00:21:26;;;;;;;14.32;7.35;;;10.10;99.90;;;;;;5043880;28;20514;-82
2022/04/23 00:23:51;;;;;;;17.40;7.78;;;10.10;99.90;;;;;;5041747;28;20049;-82
2022/04/23 00:26:17;;;;;;;14.13;7.55;;;10.00;99.90;;;;;;5041233;28;20038;-81
2022/04/23 00:28:43;;;;;;;12.13;7.22;;;10.00;99.90;;;;;;5040360;28;20048;-81
2022/04/23 00:31:09;;;;;;;17.80;7.95;;;9.90;99.90;;;;;;5040134;28;20041;-82
2022/04/23 00:33:38;;;;;;;15.73;8.40;;;9.80;99.90;;;;;;5040038;28;20042;-81
2022/04/23 00:36:05;;;;;;;15.95;8.55;;;9.70;99.90;;;;;;5041599;28;20080;-81
2022/04/23 00:38:33;;;;;;;18.40;8.38;;;9.60;99.90;;;;;;5041383;28;20037;-82
2022/04/23 00:40:58;;;;;;;20.63;8.95;;;9.60;99.90;;;;;;5040888;28;20053;-82
2022/04/23 00:43:25;;;;;;;13.27;8.13;;;9.50;99.90;;;;;;5041096;28;20049;-81
2022/04/23 00:45:51;;;;;;;16.55;7.88;;;9.50;99.90;;;;;;5040614;28;20038;-82
2022/04/23 00:48:16;;;;;;;14.35;8.50;;;9.40;99.90;;;;;;5040077;28;20060;-81
2022/04/23 00:50:42;;;;;;;13.82;8.80;;;9.40;99.90;;;;;;5041632;28;20034;-82
2022/04/23 00:53:19;;;;;;;16.25;9.13;;;9.30;99.90;;;;;;5044162;28;20095;-84
2022/04/23 00:55:46;;;;;;;13.07;8.95;;;9.30;99.90;;;;;;5044828;28;20041;-81
2022/04/23 00:58:16;;;;;;;15.65;7.72;;;9.30;99.90;;;;;;5044196;28;20037;-81
2022/04/23 01:00:43;;;;;;;22.33;9.30;;;9.20;99.90;;;;;;5042495;28;20399;-81
2022/04/23 01:03:11;;;;;;;14.20;7.80;;;9.20;99.90;;;;;;5042515;28;20045;-81
2022/04/23 01:05:37;;;;;;;19.85;8.32;;;9.20;99.90;;;;;;5043224;28;20057;-81
2022/04/23 01:08:04;;;;;;;16.77;8.85;;;9.20;99.90;;;;;;5040249;28;20447;-82
2022/04/23 01:10:30;;;;;;;13.82;9.07;;;9.10;99.90;;;;;;5041884;28;20045;-82
2022/04/23 01:12:55;;;;;;;14.05;8.70;;;9.10;99.90;;;;;;5042689;28;20072;-82
2022/04/23 01:15:21;;;;;;;14.95;8.75;;;9.10;99.90;;;;;;5043250;28;20033;-81
2022/04/23 01:17:49;;;;;;;17.55;10.05;;;9.00;99.90;;;;;;5043772;28;21063;-81
2022/04/23 01:20:15;;;;;;;15.05;8.85;;;9.00;99.90;;;;;;5045758;28;20124;-81
2022/04/23 01:22:44;;;;;;;14.88;9.10;;;9.00;99.90;;;;;;5044575;28;20056;-81
2022/04/23 01:25:12;;;;;;;19.30;10.20;;;8.90;99.90;;;;;;5044085;28;20049;-82
2022/04/23 01:27:45;;;;;;;17.23;9.60;;;9.00;99.90;;;;;;5043254;28;20034;-82
2022/04/23 01:30:11;;;;;;;16.88;9.13;;;8.90;99.90;;;;;;5043172;28;20049;-81
2022/04/23 01:32:37;;;;;;;17.40;10.00;;;8.90;99.90;;;;;;5042679;28;20095;-82
2022/04/23 01:35:04;;;;;;;20.48;9.93;;;8.80;99.90;;;;;;5042944;28;20489;-82
2022/04/23 01:37:29;;;;;;;17.52;10.82;;;8.80;99.90;;;;;;5039786;28;20172;-81
2022/04/23 01:39:55;;;;;;;17.35;10.05;;;8.70;99.90;;;;;;5041903;28;20088;-82
2022/04/23 01:42:21;;;;;;;16.60;10.35;;;8.80;99.90;;;;;;5042688;28;20509;-81
2022/04/23 01:44:51;;;;;;;16.67;9.38;;;8.70;99.90;;;;;;5041168;28;20373;-82
2022/04/23 01:47:17;;;;;;;19.13;10.68;;;8.70;99.90;;;;;;5042618;28;20107;-82
2022/04/23 01:49:44;;;;;;;17.65;11.13;;;8.70;99.90;;;;;;5040511;28;20491;-82
2022/04/23 01:52:10;;;;;;;17.83;10.90;;;8.70;99.90;;;;;;5039527;28;20053;-82
2022/04/23 01:54:36;;;;;;;19.42;11.05;;;8.60;99.90;;;;;;5039673;28;20537;-82
2022/04/23 01:57:02;;;;;;;18.10;11.80;;;8.60;99.90;;;;;;5174693;22;20067;-82
2022/04/23 01:59:29;;;;;;;19.65;11.55;;;8.60;99.90;;;;;;5080895;28;20054;-82
2022/04/23 02:01:59;;;;;;;18.30;11.40;;;8.60;99.90;;;;;;5068227;28;20127;-82
2022/04/23 02:04:25;;;;;;;17.98;11.15;;;8.70;99.90;;;;;;5068260;28;20109;-82
2022/04/23 02:06:51;;;;;;;18.05;10.43;;;8.70;99.90;;;;;;5077628;28;20033;-83
2022/04/23 02:09:17;;;;;;;19.25;11.48;;;8.70;99.90;;;;;;5097909;28;20036;-84
2022/04/23 02:11:43;;;;;;;19.02;11.23;;;8.80;99.90;;;;;;5097750;28;20037;-84
2022/04/23 02:14:09;;;;;;;18.60;10.07;;;8.70;99.90;;;;;;5097847;28;20025;-84
2022/04/23 02:16:35;;;;;;;19.50;10.82;;;8.60;99.90;;;;;;5080730;28;20026;-85
2022/04/23 02:19:03;;;;;;;17.70;10.98;;;8.50;99.90;;;;;;5064047;28;20035;-83
2022/04/23 02:21:29;;;;;;;18.25;11.85;;;8.50;99.90;;;;;;5097381;28;20025;-83
2022/04/23 02:23:55;;;;;;;20.83;12.30;;;8.50;99.90;;;;;;5067237;28;20376;-82
2022/04/23 02:26:21;;;;;;;19.95;12.88;;;8.60;99.90;;;;;;5082166;28;20123;-83
2022/04/23 02:28:50;;;;;;;26.67;12.82;;;8.50;99.90;;;;;;5065830;28;20418;-83
2022/04/23 02:31:16;;;;;;;16.75;10.98;;;8.40;99.90;;;;;;5081469;28;20033;-84
2022/04/23 02:33:44;;;;;;;20.05;11.40;;;8.40;99.90;;;;;;5066160;28;20045;-83
2022/04/23 02:36:15;;;;;;;19.65;12.27;;;8.40;99.90;;;;;;5064714;28;20045;-83
2022/04/23 02:38:44;;;;;;;21.58;12.25;;;8.30;99.90;;;;;;5048951;28;20044;-82
2022/04/23 02:41:10;;;;;;;19.17;11.88;;;8.30;99.90;;;;;;5079542;28;20375;-83
2022/04/23 02:43:38;;;;;;;21.65;11.52;;;8.30;99.90;;;;;;5085973;28;20068;-82
2022/04/23 02:46:09;;;;;;;21.20;11.65;;;8.30;99.90;;;;;;5067373;28;20078;-82
2022/04/23 02:48:38;;;;;;;23.20;13.10;;;8.20;99.90;;;;;;5086030;28;20044;-83
2022/04/23 02:51:03;;;;;;;21.83;12.82;;;8.30;99.90;;;;;;5090107;28;20079;-84
2022/04/23 02:53:29;;;;;;;21.65;12.02;;;8.30;99.90;;;;;;5072921;28;20044;-83
2022/04/23 02:55:56;;;;;;;23.50;12.70;;;8.20;99.90;;;;;;5088294;28;20502;-83
2022/04/23 02:58:24;;;;;;;20.60;12.57;;;8.20;99.90;;;;;;5083784;28;20072;-82
2022/04/23 03:00:50;;;;;;;18.83;11.60;;;8.10;99.90;;;;;;5066411;28;20070;-82
2022/04/23 03:03:15;;;;;;;24.30;13.00;;;8.70;99.90;;;;;;5065380;28;20101;-84
2022/04/23 03:05:44;;;;;;;21.70;11.75;;;8.10;99.90;;;;;;5066068;28;20049;-82
2022/04/23 03:08:12;;;;;;;25.90;13.70;;;8.20;99.90;;;;;;5084456;28;20149;-82
2022/04/23 03:10:39;;;;;;;22.05;11.63;;;8.10;99.90;;;;;;5083753;28;20045;-83
2022/04/23 03:13:07;;;;;;;21.83;13.35;;;8.00;99.90;;;;;;5083774;28;20441;-83
2022/04/23 03:15:34;;;;;;;17.42;12.38;;;8.00;99.90;;;;;;5084290;28;20056;-83
2022/04/23 03:18:05;;;;;;;23.27;12.63;;;7.90;99.90;;;;;;5067433;28;20045;-82
2022/04/23 03:20:32;;;;;;;22.80;12.65;;;8.00;99.90;;;;;;5065628;28;20036;-81
2022/04/23 03:22:57;;;;;;;23.23;12.75;;;7.90;99.90;;;;;;5049717;28;20076;-82
2022/04/23 03:25:23;;;;;;;17.58;11.07;;;8.10;99.90;;;;;;5083192;28;20185;-83
2022/04/23 03:27:49;;;;;;;22.30;11.32;;;7.90;99.90;;;;;;5083588;28;20051;-84
2022/04/23 03:30:14;;;;;;;17.25;12.05;;;7.90;99.90;;;;;;5065269;28;20044;-83
2022/04/23 03:32:41;;;;;;;17.48;11.55;;;7.90;99.90;;;;;;5065358;28;20049;-83
2022/04/23 03:35:10;;;;;;;19.95;12.23;;;7.90;99.90;;;;;;5083534;28;20048;-83
2022/04/23 03:37:40;;;;;;;20.33;13.00;;;7.90;99.90;;;;;;5085793;28;20071;-82
2022/04/23 03:40:07;;;;;;;22.40;12.98;;;7.80;99.90;;;;;;5081325;28;20041;-83
2022/04/23 03:42:34;;;;;;;23.25;12.80;;;8.30;99.90;;;;;;5048288;28;20067;-83
2022/04/23 03:45:02;;;;;;;19.02;12.38;;;7.70;99.90;;;;;;5082247;28;20047;-81
2022/04/23 03:47:27;;;;;;;20.90;14.13;;;7.60;99.90;;;;;;5082324;28;20040;-82
2022/04/23 03:49:53;;;;;;;22.98;12.15;;;7.60;99.90;;;;;;5080597;28;20574;-82
2022/04/23 03:52:18;;;;;;;22.45;13.07;;;7.70;99.90;;;;;;5077431;28;20123;-83
2022/04/23 03:54:44;;;;;;;19.40;12.02;;;7.60;99.90;;;;;;5078513;28;20043;-83
2022/04/23 03:57:09;;;;;;;18.48;13.07;;;7.60;99.90;;;;;;5059258;28;20407;-83
2022/04/23 03:59:37;;;;;;;20.75;12.68;;;7.50;99.90;;;;;;5077095;28;20043;-82
2022/04/23 04:02:05;;;;;;;17.38;11.52;;;7.50;99.90;;;;;;5079194;28;20054;-82
2022/04/23 04:04:32;;;;;;;18.50;12.18;;;7.50;99.90;;;;;;5077156;28;20123;-83
2022/04/23 04:06:59;;;;;;;21.20;12.68;;;7.50;99.90;;;;;;5077673;28;20044;-80
2022/04/23 04:09:26;;;;;;;20.17;11.90;;;7.50;99.90;;;;;;5079251;28;20491;-83
2022/04/23 04:12:01;;;;;;;21.02;12.13;;;7.50;99.90;;;;;;5060443;28;20447;-83
2022/04/23 04:14:27;;;;;;;16.98;11.48;;;7.60;99.90;;;;;;5079098;28;20079;-81
2022/04/23 04:16:52;;;;;;;19.67;12.35;;;7.60;99.90;;;;;;5061277;28;20041;-82
2022/04/23 04:19:18;;;;;;;17.05;11.63;;;7.70;99.90;;;;;;5079967;28;20068;-81
2022/04/23 04:21:46;;;;;;;18.58;11.70;;;7.70;99.90;;;;;;5080431;28;20173;-83
2022/04/23 04:24:16;;;;;;;19.23;11.85;;;7.70;99.90;;;;;;5082212;28;20146;-82
2022/04/23 04:26:48;;;;;;;19.75;11.82;;;7.70;99.90;;;;;;5079387;28;20044;-82
2022/04/23 04:29:14;;;;;;;19.02;12.75;;;7.60;99.90;;;;;;5079446;28;20433;-82
2022/04/23 04:31:49;;;;;;;19.20;12.75;;;7.60;99.90;;;;;;5081852;28;20411;-82
2022/04/23 04:34:21;;;;;;;16.00;11.07;;;7.60;99.90;;;;;;5081168;28;20041;-83
2022/04/23 04:36:48;;;;;;;22.63;11.70;;;7.70;99.90;;;;;;5092909;28;20054;-83
2022/04/23 04:39:15;;;;;;;16.40;11.98;;;7.70;99.90;;;;;;5093244;28;20036;-83
2022/04/23 04:41:44;;;;;;;21.35;10.90;;;7.70;99.90;;;;;;5087954;28;20045;-82
2022/04/23 04:44:10;;;;;;;25.50;12.18;;;7.70;99.90;;;;;;5088976;28;20044;-82
2022/04/23 04:46:36;;;;;;;18.80;11.43;;;7.70;99.90;;;;;;5085275;28;20064;-82
2022/04/23 04:49:03;;;;;;;17.67;12.15;;;7.70;99.90;;;;;;5086057;28;20068;-81
2022/04/23 04:51:30;;;;;;;18.50;12.23;;;7.70;99.90;;;;;;5083718;28;20396;-82
2022/04/23 04:53:56;;;;;;;16.52;11.30;;;7.70;99.90;;;;;;5080370;28;20113;-82
2022/04/23 04:56:22;;;;;;;24.58;12.60;;;7.80;99.90;;;;;;5080840;28;20510;-83
2022/04/23 04:58:50;;;;;;;17.38;11.18;;;7.80;99.90;;;;;;5085828;28;20045;-82
2022/04/23 05:01:16;;;;;;;17.92;11.57;;;7.90;99.90;;;;;;5058206;28;20106;-82
2022/04/23 05:03:44;;;;;;;18.52;11.95;;;7.90;99.90;;;;;;5083958;28;20040;-82
2022/04/23 05:06:10;;;;;;;17.38;11.45;;;7.90;99.90;;;;;;5082634;28;20076;-81
2022/04/23 05:08:37;;;;;;;17.95;11.77;;;7.90;99.90;;;;;;5082320;28;20044;-83
2022/04/23 05:11:03;;;;;;;17.27;11.20;;;8.00;99.90;;;;;;5067721;28;20044;-81
2022/04/23 05:13:29;;;;;;;16.13;11.07;;;8.10;99.90;;;;;;5081090;28;20047;-85
2022/04/23 05:15:55;;;;;;;15.90;11.45;;;8.10;99.90;;;;;;5064390;28;20048;-85
2022/04/23 05:18:21;;;;;;;17.08;11.68;;;8.10;99.90;;;;;;5098546;28;20033;-84
2022/04/23 05:20:46;;;;;;;16.85;11.40;;;8.10;99.90;;;;;;5097229;28;20036;-82
2022/04/23 05:23:13;;;;;;;14.50;10.30;;;8.20;99.90;;;;;;5098079;28;20040;-83
2022/04/23 05:25:38;;;;;;;16.70;10.88;;;8.30;99.90;;;;;;5063782;28;20529;-83
2022/04/23 05:28:04;;;;;;;16.77;10.63;;;8.30;99.90;;;;;;5093865;28;20036;-83
2022/04/23 05:30:30;;;;;;;14.80;9.50;;;8.40;99.90;;;;;;5078746;28;20040;-81
2022/04/23 05:32:55;;;;;;;15.25;10.45;;;8.40;99.90;;;;;;5077781;28;20036;-81
2022/04/23 05:35:21;;;;;;;15.07;8.57;;;8.50;99.90;;;;;;5060136;28;20045;-82
2022/04/23 05:37:47;;;;;;;15.50;10.57;;;8.60;99.90;;;;;;5077957;28;20073;-82
2022/04/23 05:40:12;;;;;;;14.57;9.45;;;8.60;99.90;;;;;;5077071;28;20040;-82
2022/04/23 05:42:38;;;;;;;17.30;10.27;;;8.70;99.90;;;;;;5059054;28;20036;-83
2022/04/23 05:45:05;;;;;;;13.82;9.23;;;8.70;99.90;;;;;;5078199;28;20111;-82
2022/04/23 05:47:30;;;;;;;15.45;9.38;;;8.80;99.90;;;;;;5044961;28;20094;-82
2022/04/23 05:49:56;;;;;;;13.82;9.55;;;8.80;99.90;;;;;;5062106;28;20056;-83
2022/04/23 05:52:22;;;;;;;16.95;10.00;;;8.80;99.90;;;;;;5062661;28;20051;-81
2022/04/23 05:54:48;;;;;;;13.10;8.90;;;8.90;99.90;;;;;;5062297;28;20106;-82
2022/04/23 05:57:14;;;;;;;19.65;9.60;;;8.90;99.90;;;;;;5060756;28;20071;-83
2022/04/23 05:59:40;;;;;;;13.15;8.93;;;8.90;99.90;;;;;;5041669;28;20472;-81
2022/04/23 06:02:05;;;;;;;12.25;8.48;;;9.00;99.90;;;;;;5076703;28;20506;-81
2022/04/23 06:04:31;;;;;;;14.00;9.70;;;9.00;99.90;;;;;;5059011;28;20049;-82
2022/04/23 06:06:56;;;;;;;12.75;9.20;;;9.10;99.90;;;;;;5058152;28;20041;-82
2022/04/23 06:09:22;;;;;;;14.13;9.65;;;9.10;99.90;;;;;;5058811;28;20036;-81
2022/04/23 06:11:48;;;;;;;14.45;9.70;;;9.80;99.90;;;;;;5077110;28;20625;-81
2022/04/23 06:14:13;;;;;;;19.52;9.52;;;9.80;99.90;;;;;;5077111;28;20086;-81
2022/04/23 06:16:39;;;;;;;13.70;7.80;;;10.30;99.90;;;;;;5061384;28;20074;-82
2022/04/23 06:19:05;;;;;;;13.57;8.27;;;10.70;99.90;;;;;;5083265;28;20123;-82
2022/04/23 06:21:31;;;;;;;14.70;8.65;;;11.10;99.90;;;;;;5080938;28;20092;-82
2022/04/23 06:23:57;;;;;;;11.20;7.35;;;11.30;99.90;;;;;;5059338;28;20150;-82
2022/04/23 06:26:22;;;;;;;12.60;9.07;;;11.40;99.90;;;;;;5059114;28;20041;-81
2022/04/23 06:28:48;;;;;;;13.13;7.65;;;11.50;99.90;;;;;;5076534;28;20411;-81
2022/04/23 06:31:14;;;;;;;13.05;7.72;;;11.60;99.90;;;;;;5041379;28;20566;-83
2022/04/23 06:33:41;;;;;;;11.23;7.43;;;12.10;99.90;;;;;;5060648;28;20114;-82
2022/04/23 06:36:10;;;;;;;12.75;8.40;;;12.10;99.90;;;;;;5077153;28;20044;-82
2022/04/23 06:38:36;;;;;;;14.27;7.85;;;12.00;99.90;;;;;;5042365;28;20049;-82
2022/04/23 06:41:02;;;;;;;10.93;7.85;;;12.10;99.90;;;;;;5057593;28;20076;-82
2022/04/23 06:43:27;;;;;;;11.50;7.95;;;12.40;99.90;;;;;;5075502;28;20055;-81
2022/04/23 06:45:53;;;;;;;11.18;7.65;;;12.60;99.90;;;;;;5076008;28;20150;-81
2022/04/23 06:48:18;;;;;;;11.82;8.00;;;12.80;99.90;;;;;;5076618;28;20036;-82
2022/04/23 06:50:44;;;;;;;13.60;7.63;;;12.80;99.90;;;;;;5079804;28;20058;-82
2022/04/23 06:53:09;;;;;;;10.27;7.20;;;12.80;99.90;;;;;;5077878;28;20148;-82
2022/04/23 06:55:35;;;;;;;13.50;8.23;;;12.90;99.90;;;;;;5077804;28;20048;-82
2022/04/23 06:58:01;;;;;;;14.60;8.15;;;13.00;99.90;;;;;;5042072;28;20048;-82
2022/04/23 07:00:26;;;;;;;12.68;8.10;;;13.30;99.70;;;;;;5058015;28;20080;-83
2022/04/23 07:02:52;;;;;;;10.63;7.97;;;13.40;99.30;;;;;;5073954;28;20422;-83
2022/04/23 07:05:18;;;;;;;10.13;7.07;;;14.10;95.10;;;;;;5074926;28;20044;-82
2022/04/23 07:07:58;;;;;;;12.20;7.65;;;14.00;90.90;;;;;;5056039;28;20041;-83
2022/04/23 07:10:28;;;;;;;11.63;7.40;;;13.90;92.80;;;;;;5074840;28;20044;-82
2022/04/23 07:12:54;;;;;;;11.60;7.32;;;14.10;88.50;;;;;;5057254;28;20048;-83
2022/04/23 07:15:21;;;;;;;10.27;6.97;;;14.20;89.30;;;;;;5077227;28;20059;-83
2022/04/23 07:17:47;;;;;;;19.55;8.27;;;14.10;83.10;;;;;;5077364;28;20041;-82
2022/04/23 07:20:14;;;;;;;13.15;8.30;;;14.30;86.20;;;;;;5076667;28;20047;-83
2022/04/23 07:22:39;;;;;;;11.00;7.18;;;14.50;85.80;;;;;;5076667;28;20055;-83
2022/04/23 07:25:10;;;;;;;10.55;6.78;;;14.90;78.90;;;;;;5058372;28;20036;-83
2022/04/23 07:27:36;;;;;;;11.57;8.02;;;14.80;72.60;;;;;;5061146;28;20561;-82
2022/04/23 07:30:02;;;;;;;10.43;7.10;;;14.80;75.40;;;;;;5073863;28;20044;-82
2022/04/23 07:32:27;;;;;;;10.18;7.13;;;14.90;64.80;;;;;;5076852;28;20534;-83
2022/04/23 07:37:37;;;;;;;12.02;6.18;;;14.80;58.00;;;;;;5075877;28;20492;-83
2022/04/23 07:40:10;;;;;;;12.27;7.07;;;14.70;61.70;;;;;;5080591;28;20096;-84
2022/04/23 07:42:36;;;;;;;11.32;8.13;;;15.10;62.90;;;;;;5066653;28;20111;-82
2022/04/23 07:45:03;;;;;;;12.68;7.30;;;15.50;62.10;;;;;;5081530;28;20048;-83
2022/04/23 07:47:28;;;;;;;12.20;7.50;;;15.90;49.50;;;;;;5082766;28;20047;-82
2022/04/23 07:49:54;;;;;;;10.18;7.35;;;15.70;45.80;;;;;;5063984;28;20100;-83
2022/04/23 07:52:19;;;;;;;11.70;7.50;;;15.70;40.70;;;;;;5078826;28;20082;-82
2022/04/23 07:54:45;;;;;;;9.45;6.53;;;16.00;41.10;;;;;;5078830;28;20047;-82
2022/04/23 07:57:12;;;;;;;11.55;6.63;;;15.80;34.20;;;;;;5055308;28;20057;-83
2022/04/23 07:59:40;;;;;;;10.18;6.97;;;15.80;32.30;;;;;;5057566;28;20042;-83
2022/04/23 08:02:06;;;;;;;9.77;6.82;;;15.60;28.10;;;;;;5057182;28;20080;-83
2022/04/23 08:04:34;;;;;;;13.15;7.38;;;15.60;38.00;;;;;;5058314;28;20565;-83
2022/04/23 08:07:00;;;;;;;10.38;7.63;;;15.90;28.20;;;;;;5056714;28;20041;-83
2022/04/23 08:09:26;;;;;;;12.18;7.72;;;16.00;28.40;;;;;;5056082;28;20048;-83
2022/04/23 08:11:51;;;;;;;11.40;7.50;;;16.70;29.00;;;;;;5059180;28;20052;-83
2022/04/23 08:14:17;;;;;;;10.77;6.68;;;17.50;27.50;;;;;;5059003;28;20593;-83
2022/04/23 08:16:45;;;;;;;10.68;6.50;;;17.00;18.70;;;;;;5061949;28;20091;-83
2022/04/23 08:19:11;;;;;;;9.43;6.63;;;16.90;22.00;;;;;;5056200;28;20052;-82
2022/04/23 08:21:36;;;;;;;9.57;6.43;;;16.50;17.30;;;;;;5057820;28;20462;-82
2022/04/23 08:24:02;;;;;;;11.95;7.03;;;15.90;16.90;;;;;;5069920;28;20049;-83
2022/04/23 08:26:27;;;;;;;14.73;7.05;;;15.50;20.10;;;;;;5077210;28;20041;-85
2022/04/23 08:31:37;;;;;;;13.27;7.18;;;16.10;17.60;;;;;;5056530;28;20029;-85
2022/04/23 08:34:03;;;;;;;9.25;6.00;;;15.90;16.60;;;;;;5055990;28;20093;-84
2022/04/23 08:36:35;;;;;;;12.85;7.45;;;15.80;16.30;;;;;;5055777;28;20049;-84
2022/04/23 08:39:01;;;;;;;11.43;6.80;;;15.90;17.10;;;;;;5047573;28;20080;-82
2022/04/23 08:41:31;;;;;;;9.18;5.45;;;16.20;18.20;;;;;;5057814;28;20037;-82
2022/04/23 08:44:05;;;;;;;10.77;6.30;;;16.20;13.80;;;;;;5059271;28;20117;-81
2022/04/23 08:46:38;;;;;;;13.38;7.95;;;15.30;16.60;;;;;;5057436;28;20060;-83
2022/04/23 08:49:32;;;;;;;15.35;7.78;;;15.20;18.20;;;;;;5058269;28;20037;-82
2022/04/23 08:52:21;;;;;;;11.05;6.40;;;15.40;17.30;;;;;;5050712;28;20135;-81
2022/04/23 08:54:47;;;;;;;12.68;7.55;;;15.50;16.70;;;;;;5060500;28;20045;-81
2022/04/23 08:57:13;;;;;;;11.63;7.32;;;15.90;17.00;;;;;;5076620;28;20138;-80
2022/04/23 08:59:45;;;;;;;15.57;7.05;;;16.20;16.60;;;;;;5084941;28;20041;-81
2022/04/23 09:02:13;;;;;;;9.27;5.85;;;15.20;16.30;;;;;;5084082;28;20096;-83
2022/04/23 09:04:42;;;;;;;9.57;6.43;;;15.40;16.90;;;;;;5082585;28;20116;-84
2022/04/23 09:07:18;;;;;;;11.23;6.07;;;15.80;19.70;;;;;;5049903;28;20076;-87
2022/04/23 09:09:49;;;;;;;9.38;5.90;;;16.20;16.00;;;;;;5082442;28;20032;-87
2022/04/23 09:12:16;;;;;;;13.13;6.72;;;16.20;15.30;;;;;;5081428;28;20045;-88
2022/04/23 09:14:41;;;;;;;12.07;6.30;;;16.20;13.10;;;;;;5071994;28;20046;-87
2022/04/23 09:25:39;;;;;;;9.63;6.00;;;16.90;10.90;;;;;;5021038;28;20120;-84
2022/04/23 09:28:23;;;;;;;10.27;5.85;;;17.20;11.50;;;;;;5053633;28;20079;-85
2022/04/23 09:30:51;;;;;;;12.68;6.43;;;16.90;11.60;;;;;;5053972;28;20090;-85
2022/04/23 09:33:21;;;;;;;9.73;6.75;;;16.50;12.50;;;;;;5054702;28;20041;-83
2022/04/23 09:36:01;;;;;;;17.33;7.70;;;16.50;12.30;;;;;;5052742;28;20045;-84
2022/04/23 09:38:27;;;;;;;12.77;7.88;;;16.80;14.60;;;;;;5050171;28;20049;-81
2022/04/23 09:40:58;;;;;;;13.55;7.13;;;16.30;12.90;;;;;;5042362;28;20048;-83
2022/04/23 09:43:32;;;;;;;13.88;7.90;;;16.30;16.80;;;;;;5054057;28;20124;-82
2022/04/23 09:46:03;;;;;;;10.63;7.40;;;16.60;15.80;;;;;;5053260;28;20045;-82
2022/04/23 09:48:30;;;;;;;11.70;7.70;;;16.20;13.20;;;;;;5054538;28;20535;-82
2022/04/23 09:50:56;;;;;;;9.75;6.30;;;16.30;15.10;;;;;;5053420;28;20480;-82
2022/04/23 09:53:27;;;;;;;13.00;6.78;;;16.20;14.90;;;;;;5052401;28;20095;-83
2022/04/23 09:55:54;;;;;;;13.68;7.40;;;16.10;14.10;;;;;;5053423;28;20045;-84
2022/04/23 09:58:20;;;;;;;9.18;6.63;;;15.80;11.10;;;;;;5036337;28;20103;-84
2022/04/23 10:00:47;;;;;;;17.20;7.78;;;15.90;16.90;;;;;;5053818;28;20055;-82
2022/04/23 10:03:14;;;;;;;9.75;6.93;;;17.40;17.00;;;;;;5069869;28;20040;-84
2022/04/23 10:05:41;;;;;;;10.73;7.78;;;16.50;16.70;;;;;;5073202;28;20087;-82
2022/04/23 10:08:14;;;;;;;9.90;7.78;;;16.60;17.10;;;;;;5074606;28;20143;-84
2022/04/23 10:10:55;;;;;;;11.57;7.28;;;16.60;16.60;;;;;;5056094;28;20064;-84
2022/04/23 10:13:25;;;;;;;13.68;7.70;;;16.60;15.10;;;;;;5072768;28;20067;-84
2022/04/23 10:15:53;;;;;;;12.27;7.47;;;16.70;16.20;;;;;;5055328;28;20093;-83
2022/04/23 10:18:20;;;;;;;15.73;8.43;;;16.60;13.70;;;;;;5076005;28;20052;-86
2022/04/23 10:20:54;;;;;;;9.95;7.32;;;17.60;16.00;;;;;;5086824;28;20050;-84
2022/04/23 10:23:58;;;;;;;12.57;7.50;;;16.60;11.80;;;;;;5080637;28;20049;-84
2022/04/23 10:26:43;;;;;;;12.57;8.02;;;16.90;13.90;;;;;;5082254;28;20151;-85
2022/04/23 10:29:10;;;;;;;11.48;7.45;;;16.90;13.40;;;;;;5076062;28;20040;-85
2022/04/23 10:31:36;;;;;;;15.82;6.82;;;16.90;10.50;;;;;;5057363;28;20468;-84
2022/04/23 10:34:03;;;;;;;9.23;6.97;;;17.00;8.60;;;;;;5057584;28;20115;-84
2022/04/23 10:36:28;;;;;;;10.18;7.65;;;17.20;9.90;;;;;;5056981;28;20108;-86
2022/04/23 10:39:23;;;;;;;19.52;8.80;;;17.40;11.40;;;;;;5038104;28;20123;-86
2022/04/23 10:41:53;;;;;;;11.05;7.53;;;17.40;8.70;;;;;;5038347;28;20043;-85
2022/04/23 10:44:22;;;;;;;9.77;6.47;;;17.30;9.30;;;;;;5020835;28;20072;-83
2022/04/23 10:46:49;;;;;;;16.70;7.22;;;17.70;7.20;;;;;;5057987;28;20097;-85
2022/04/23 10:49:20;;;;;;;12.75;7.03;;;17.40;6.50;;;;;;5066519;28;20041;-84
2022/04/23 10:51:54;;;;;;;11.82;8.00;;;17.50;5.70;;;;;;5081004;28;20098;-84
2022/04/23 10:54:21;;;;;;;11.98;6.35;;;17.40;8.00;;;;;;5043949;28;20059;-85
2022/04/23 10:56:57;;;;;;;9.30;6.60;;;17.30;4.90;;;;;;5087987;28;20071;-84
2022/04/23 10:59:42;;;;;;;9.88;8.05;;;17.30;6.90;;;;;;5096018;28;20514;-84
2022/04/23 11:02:30;;;;;;;8.90;6.97;;;17.80;6.40;;;;;;5084971;28;20051;-85
2022/04/23 11:13:35;;;;;;;8.70;6.38;;;17.30;4.10;;;;;;5091954;28;20072;-81
2022/04/23 11:16:22;;;;;;;9.05;5.72;;;17.50;3.50;;;;;;5097912;28;20021;-86
2022/04/23 11:18:52;;;;;;;10.35;6.05;;;17.30;1.00;;;;;;5098408;28;20069;-85
2022/04/23 11:21:29;;;;;;;9.38;6.32;;;17.30;1.00;;;;;;5098505;28;20017;-86
2022/04/23 11:24:00;;;;;;;11.25;6.35;;;17.50;1.00;;;;;;5098852;28;20078;-85
2022/04/23 11:26:45;;;;;;;9.55;6.28;;;17.40;1.00;;;;;;5081259;28;20024;-85
2022/04/23 11:29:13;;;;;;;9.23;5.60;;;17.70;1.00;;;;;;5076623;28;20044;-81
2022/04/23 11:31:39;;;;;;;7.20;5.45;;;18.20;1.00;;;;;;5074262;28;20045;-81
2022/04/23 11:34:05;;;;;;;10.20;6.22;;;18.60;1.00;;;;;;5074176;28;20076;-82
2022/04/23 11:36:35;;;;;;;8.35;5.95;;;18.30;1.00;;;;;;5055606;28;20175;-82
2022/04/23 11:39:04;;;;;;;12.10;6.18;;;18.60;1.00;;;;;;5067670;28;20052;-83
2022/04/23 11:41:47;;;;;;;9.23;5.63;;;18.80;1.00;;;;;;5060613;28;20529;-81
2022/04/23 11:44:45;;;;;;;11.93;5.95;;;17.90;1.00;;;;;;5061465;28;20041;-83
2022/04/23 11:47:09;;;;;;;9.38;5.72;;;18.50;1.00;;;;;;5052665;28;20048;-82
2022/04/23 11:49:35;;;;;;;13.13;6.55;;;18.60;1.00;;;;;;5062016;28;20526;-83
2022/04/23 11:52:07;;;;;;;12.57;6.38;;;18.60;1.00;;;;;;5072939;28;20048;-83
2022/04/23 11:54:41;;;;;;;12.93;6.28;;;19.00;1.00;;;;;;5054983;28;20518;-81
2022/04/23 11:57:10;;;;;;;14.50;6.00;;;19.40;1.00;;;;;;5072254;28;20076;-81
2022/04/23 11:59:43;;;;;;;11.82;5.75;;;18.80;1.00;;;;;;5072402;28;20048;-82
2022/04/23 12:02:22;;;;;;;10.00;5.47;;;19.10;1.00;;;;;;5055801;28;20071;-80
2022/04/23 12:04:48;;;;;;;9.68;5.53;;;19.50;1.00;;;;;;5055951;28;20509;-81
2022/04/23 12:07:14;;;;;;;7.70;4.85;;;19.40;1.00;;;;;;5073103;28;20029;-81
2022/04/23 12:09:49;;;;;;;7.18;5.45;;;19.70;1.00;;;;;;5072959;28;20082;-81
2022/04/23 12:12:19;;;;;;;14.00;5.53;;;19.70;1.00;;;;;;5054568;28;20028;-81
2022/04/23 12:15:06;;;;;;;10.38;6.07;;;19.30;1.00;;;;;;5078075;28;20044;-81
2022/04/23 12:17:54;;;;;;;11.88;5.30;;;18.90;1.00;;;;;;5040337;28;20098;-82
2022/04/23 12:20:25;;;;;;;9.95;5.18;;;19.60;1.00;;;;;;5054063;28;20055;-80
2022/04/23 12:22:56;;;;;;;17.30;6.20;;;19.70;1.00;;;;;;5056306;28;20063;-82
2022/04/23 12:25:25;;;;;;;7.65;5.03;;;19.80;1.00;;;;;;5074074;28;20055;-82
2022/04/23 12:42:25;;;;;;;12.52;5.32;;;19.10;1.00;;;;;;5056514;28;20150;-81
2022/04/23 12:44:52;;;;;;;7.55;4.43;;;20.10;1.00;;;;;;5056319;28;20123;-82
2022/04/23 12:47:29;;;;;;;8.20;5.20;;;19.80;1.00;;;;;;5074655;28;20124;-82
2022/04/23 12:49:57;;;;;;;9.63;5.60;;;20.20;1.00;;;;;;5073908;28;20036;-82
2022/04/23 12:52:26;;;;;;;9.88;5.30;;;20.70;1.00;;;;;;5073663;28;20166;-82
2022/04/23 12:55:17;;;;;;;11.50;5.35;;;21.10;1.00;;;;;;5073549;28;20396;-83
2022/04/23 12:57:46;;;;;;;9.20;5.30;;;20.80;1.00;;;;;;5074104;28;20106;-82
2022/04/23 13:00:18;;;;;;;8.40;5.25;;;20.90;1.00;;;;;;5073542;28;20119;-82
2022/04/23 13:02:47;;;;;;;7.90;4.03;;;21.00;1.00;;;;;;5056879;28;20037;-83
2022/04/23 13:05:13;;;;;;;7.82;4.90;;;20.30;1.00;;;;;;5075497;28;20044;-82
2022/04/23 13:10:23;;;;;;;8.00;4.70;;;20.20;1.00;;;;;;5055254;28;20053;-82
2022/04/23 13:12:49;;;;;;;9.38;4.90;;;20.70;1.00;;;;;;5036435;28;20051;-82
2022/04/23 13:15:18;;;;;;;10.07;5.30;;;20.50;1.00;;;;;;5055317;28;20120;-81
2022/04/23 13:17:45;;;;;;;9.15;4.70;;;20.20;1.00;;;;;;5059545;28;20537;-82
2022/04/23 13:20:12;;;;;;;9.77;5.15;;;20.10;1.00;;;;;;5075274;28;20490;-82
2022/04/23 13:22:43;;;;;;;7.03;5.20;;;20.20;1.00;;;;;;5074146;28;20060;-82
2022/04/23 13:25:10;;;;;;;7.68;4.93;;;20.30;1.00;;;;;;5074796;28;20124;-82
2022/04/23 13:27:40;;;;;;;7.85;4.70;;;20.70;1.00;;;;;;5056599;28;20482;-83